sensor_id;sensor_type;location;lat;lon;timestamp;temperature;humidity
66586;SHT30;53444;45.822;16.092;2023-03-14T00:00:19;10.77;62.79
66586;SHT30;53444;45.822;16.092;2023-03-14T00:02:46;10.74;62.90
66586;SHT30;53444;45.822;16.092;2023-03-14T00:05:17;10.74;62.89
66586;SHT30;53444;45.822;16.092;2023-03-14T00:07:44;10.77;62.66
66586;SHT30;53444;45.822;16.092;2023-03-14T00:10:12;10.73;62.82
66586;SHT30;53444;45.822;16.092;2023-03-14T00:12:39;10.78;62.74
66586;SHT30;53444;45.822;16.092;2023-03-14T00:15:07;10.81;62.73
66586;SHT30;53444;45.822;16.092;2023-03-14T00:17:35;10.87;62.32
66586;SHT30;53444;45.822;16.092;2023-03-14T00:20:03;10.84;62.18
66586;SHT30;53444;45.822;16.092;2023-03-14T00:22:34;10.76;62.68
66586;SHT30;53444;45.822;16.092;2023-03-14T00:25:00;10.77;62.24
66586;SHT30;53444;45.822;16.092;2023-03-14T00:27:27;10.78;62.11
66586;SHT30;53444;45.822;16.092;2023-03-14T00:29:54;10.78;62.15
66586;SHT30;53444;45.822;16.092;2023-03-14T00:32:20;10.80;62.02
66586;SHT30;53444;45.822;16.092;2023-03-14T00:34:49;10.76;62.00
66586;SHT30;53444;45.822;16.092;2023-03-14T00:37:16;10.78;62.04
66586;SHT30;53444;45.822;16.092;2023-03-14T00:39:42;10.78;61.86
66586;SHT30;53444;45.822;16.092;2023-03-14T00:42:09;10.80;61.64
66586;SHT30;53444;45.822;16.092;2023-03-14T00:44:36;10.88;61.56
66586;SHT30;53444;45.822;16.092;2023-03-14T00:47:02;10.84;61.47
66586;SHT30;53444;45.822;16.092;2023-03-14T00:49:29;10.87;61.29
66586;SHT30;53444;45.822;16.092;2023-03-14T00:51:57;10.81;61.33
66586;SHT30;53444;45.822;16.092;2023-03-14T00:54:24;10.81;61.35
66586;SHT30;53444;45.822;16.092;2023-03-14T00:56:50;10.85;61.15
66586;SHT30;53444;45.822;16.092;2023-03-14T00:59:17;10.81;61.50
66586;SHT30;53444;45.822;16.092;2023-03-14T01:01:44;10.81;61.31
66586;SHT30;53444;45.822;16.092;2023-03-14T01:04:11;10.84;61.07
66586;SHT30;53444;45.822;16.092;2023-03-14T01:06:38;10.84;61.09
66586;SHT30;53444;45.822;16.092;2023-03-14T01:09:06;10.94;60.68
66586;SHT30;53444;45.822;16.092;2023-03-14T01:11:34;10.97;60.37
66586;SHT30;53444;45.822;16.092;2023-03-14T01:14:02;11.07;59.97
66586;SHT30;53444;45.822;16.092;2023-03-14T01:16:33;10.97;60.63
66586;SHT30;53444;45.822;16.092;2023-03-14T01:19:00;11.03;59.93
66586;SHT30;53444;45.822;16.092;2023-03-14T01:21:29;10.98;59.99
66586;SHT30;53444;45.822;16.092;2023-03-14T01:23:57;11.03;59.83
66586;SHT30;53444;45.822;16.092;2023-03-14T01:26:27;11.01;59.89
66586;SHT30;53444;45.822;16.092;2023-03-14T01:28:54;10.94;60.24
66586;SHT30;53444;45.822;16.092;2023-03-14T01:31:22;10.94;60.08
66586;SHT30;53444;45.822;16.092;2023-03-14T01:33:49;10.93;60.08
66586;SHT30;53444;45.822;16.092;2023-03-14T01:36:15;10.90;60.39
66586;SHT30;53444;45.822;16.092;2023-03-14T01:38:42;10.90;60.22
66586;SHT30;53444;45.822;16.092;2023-03-14T01:41:13;10.93;60.14
66586;SHT30;53444;45.822;16.092;2023-03-14T01:43:42;10.91;59.98
66586;SHT30;53444;45.822;16.092;2023-03-14T01:46:24;10.94;59.99
66586;SHT30;53444;45.822;16.092;2023-03-14T01:49:13;11.00;59.90
66586;SHT30;53444;45.822;16.092;2023-03-14T01:51:46;10.97;59.95
66586;SHT30;53444;45.822;16.092;2023-03-14T01:54:17;11.04;59.66
66586;SHT30;53444;45.822;16.092;2023-03-14T01:56:47;11.08;59.64
66586;SHT30;53444;45.822;16.092;2023-03-14T01:59:16;10.97;60.07
66586;SHT30;53444;45.822;16.092;2023-03-14T02:01:45;10.94;59.95
66586;SHT30;53444;45.822;16.092;2023-03-14T02:04:13;10.97;60.06
66586;SHT30;53444;45.822;16.092;2023-03-14T02:06:47;10.96;60.09
66586;SHT30;53444;45.822;16.092;2023-03-14T02:09:15;10.96;60.01
66586;SHT30;53444;45.822;16.092;2023-03-14T02:11:42;10.91;60.18
66586;SHT30;53444;45.822;16.092;2023-03-14T02:14:17;10.93;60.19
66586;SHT30;53444;45.822;16.092;2023-03-14T02:16:45;10.85;60.73
66586;SHT30;53444;45.822;16.092;2023-03-14T02:19:14;10.84;60.87
66586;SHT30;53444;45.822;16.092;2023-03-14T02:21:49;10.80;61.13
66586;SHT30;53444;45.822;16.092;2023-03-14T02:24:26;10.70;61.53
66586;SHT30;53444;45.822;16.092;2023-03-14T02:27:10;10.67;61.55
66586;SHT30;53444;45.822;16.092;2023-03-14T02:29:41;10.64;62.06
66586;SHT30;53444;45.822;16.092;2023-03-14T02:32:12;10.64;61.90
66586;SHT30;53444;45.822;16.092;2023-03-14T02:34:40;10.81;61.62
66586;SHT30;53444;45.822;16.092;2023-03-14T02:37:10;11.03;61.39
66586;SHT30;53444;45.822;16.092;2023-03-14T02:39:39;11.00;61.38
66586;SHT30;53444;45.822;16.092;2023-03-14T02:42:06;11.11;61.34
66586;SHT30;53444;45.822;16.092;2023-03-14T02:44:34;11.39;60.56
66586;SHT30;53444;45.822;16.092;2023-03-14T02:47:02;11.32;60.80
66586;SHT30;53444;45.822;16.092;2023-03-14T02:49:31;11.17;61.40
66586;SHT30;53444;45.822;16.092;2023-03-14T02:51:59;11.14;61.49
66586;SHT30;53444;45.822;16.092;2023-03-14T02:54:26;11.10;61.77
66586;SHT30;53444;45.822;16.092;2023-03-14T02:56:53;11.17;61.69
66586;SHT30;53444;45.822;16.092;2023-03-14T02:59:19;11.21;61.38
66586;SHT30;53444;45.822;16.092;2023-03-14T03:01:47;11.22;61.17
66586;SHT30;53444;45.822;16.092;2023-03-14T03:04:14;11.15;61.66
66586;SHT30;53444;45.822;16.092;2023-03-14T03:06:40;11.08;61.84
66586;SHT30;53444;45.822;16.092;2023-03-14T03:09:07;11.08;62.03
66586;SHT30;53444;45.822;16.092;2023-03-14T03:11:34;11.04;61.81
66586;SHT30;53444;45.822;16.092;2023-03-14T03:14:01;11.07;61.97
66586;SHT30;53444;45.822;16.092;2023-03-14T03:16:28;11.00;62.22
66586;SHT30;53444;45.822;16.092;2023-03-14T03:18:56;10.93;62.36
66586;SHT30;53444;45.822;16.092;2023-03-14T03:21:22;10.98;62.33
66586;SHT30;53444;45.822;16.092;2023-03-14T03:23:49;11.03;62.08
66586;SHT30;53444;45.822;16.092;2023-03-14T03:26:16;10.94;62.75
66586;SHT30;53444;45.822;16.092;2023-03-14T03:28:43;10.87;63.03
66586;SHT30;53444;45.822;16.092;2023-03-14T03:31:10;10.94;62.54
66586;SHT30;53444;45.822;16.092;2023-03-14T03:33:37;10.96;62.57
66586;SHT30;53444;45.822;16.092;2023-03-14T03:36:07;10.93;62.54
66586;SHT30;53444;45.822;16.092;2023-03-14T03:38:34;10.94;62.55
66586;SHT30;53444;45.822;16.092;2023-03-14T03:41:02;10.97;62.42
66586;SHT30;53444;45.822;16.092;2023-03-14T03:43:29;11.01;62.21
66586;SHT30;53444;45.822;16.092;2023-03-14T03:45:56;10.91;62.55
66586;SHT30;53444;45.822;16.092;2023-03-14T03:48:22;10.91;62.57
66586;SHT30;53444;45.822;16.092;2023-03-14T03:50:49;10.84;62.75
66586;SHT30;53444;45.822;16.092;2023-03-14T03:53:17;10.87;62.67
66586;SHT30;53444;45.822;16.092;2023-03-14T03:55:44;10.93;62.44
66586;SHT30;53444;45.822;16.092;2023-03-14T03:58:10;10.98;62.36
66586;SHT30;53444;45.822;16.092;2023-03-14T04:00:37;11.01;62.34
66586;SHT30;53444;45.822;16.092;2023-03-14T04:03:05;11.03;62.36
66586;SHT30;53444;45.822;16.092;2023-03-14T04:05:32;11.01;62.55
66586;SHT30;53444;45.822;16.092;2023-03-14T04:07:59;11.01;62.66
66586;SHT30;53444;45.822;16.092;2023-03-14T04:10:27;11.06;62.57
66586;SHT30;53444;45.822;16.092;2023-03-14T04:12:54;10.96;62.99
66586;SHT30;53444;45.822;16.092;2023-03-14T04:15:21;11.03;62.73
66586;SHT30;53444;45.822;16.092;2023-03-14T04:17:47;11.00;62.94
66586;SHT30;53444;45.822;16.092;2023-03-14T04:20:14;10.97;63.10
66586;SHT30;53444;45.822;16.092;2023-03-14T04:22:41;10.83;63.64
66586;SHT30;53444;45.822;16.092;2023-03-14T04:25:08;10.94;63.43
66586;SHT30;53444;45.822;16.092;2023-03-14T04:27:36;10.93;63.22
66586;SHT30;53444;45.822;16.092;2023-03-14T04:30:03;10.84;63.57
66586;SHT30;53444;45.822;16.092;2023-03-14T04:32:30;10.90;63.52
66586;SHT30;53444;45.822;16.092;2023-03-14T04:34:57;10.81;63.72
66586;SHT30;53444;45.822;16.092;2023-03-14T04:37:23;10.77;64.15
66586;SHT30;53444;45.822;16.092;2023-03-14T04:39:50;10.74;64.43
66586;SHT30;53444;45.822;16.092;2023-03-14T04:42:17;10.76;64.41
66586;SHT30;53444;45.822;16.092;2023-03-14T04:44:45;10.83;64.35
66586;SHT30;53444;45.822;16.092;2023-03-14T04:47:12;11.14;63.50
66586;SHT30;53444;45.822;16.092;2023-03-14T04:49:38;11.24;63.15
66586;SHT30;53444;45.822;16.092;2023-03-14T04:52:05;11.19;63.22
66586;SHT30;53444;45.822;16.092;2023-03-14T04:54:32;11.03;63.78
66586;SHT30;53444;45.822;16.092;2023-03-14T04:56:58;11.08;63.63
66586;SHT30;53444;45.822;16.092;2023-03-14T04:59:25;11.07;63.56
66586;SHT30;53444;45.822;16.092;2023-03-14T05:01:53;10.90;64.12
66586;SHT30;53444;45.822;16.092;2023-03-14T05:04:20;10.78;64.61
66586;SHT30;53444;45.822;16.092;2023-03-14T05:06:46;10.73;64.77
66586;SHT30;53444;45.822;16.092;2023-03-14T05:09:13;10.74;64.43
66586;SHT30;53444;45.822;16.092;2023-03-14T05:11:40;10.61;65.05
66586;SHT30;53444;45.822;16.092;2023-03-14T05:14:07;10.60;65.36
66586;SHT30;53444;45.822;16.092;2023-03-14T05:16:34;10.61;65.04
66586;SHT30;53444;45.822;16.092;2023-03-14T05:19:02;10.61;65.00
66586;SHT30;53444;45.822;16.092;2023-03-14T05:21:28;10.67;64.77
66586;SHT30;53444;45.822;16.092;2023-03-14T05:23:55;10.56;65.42
66586;SHT30;53444;45.822;16.092;2023-03-14T05:26:22;10.45;65.76
66586;SHT30;53444;45.822;16.092;2023-03-14T05:28:49;10.45;66.01
66586;SHT30;53444;45.822;16.092;2023-03-14T05:31:15;10.43;66.24
66586;SHT30;53444;45.822;16.092;2023-03-14T05:33:42;10.50;66.08
66586;SHT30;53444;45.822;16.092;2023-03-14T05:36:10;10.55;66.08
66586;SHT30;53444;45.822;16.092;2023-03-14T05:38:37;10.83;65.20
66586;SHT30;53444;45.822;16.092;2023-03-14T05:41:04;10.90;65.42
66586;SHT30;53444;45.822;16.092;2023-03-14T05:43:31;11.04;64.94
66586;SHT30;53444;45.822;16.092;2023-03-14T05:45:57;11.35;64.54
66586;SHT30;53444;45.822;16.092;2023-03-14T05:48:24;11.42;64.30
66586;SHT30;53444;45.822;16.092;2023-03-14T05:50:54;11.31;64.62
66586;SHT30;53444;45.822;16.092;2023-03-14T05:53:22;11.22;65.10
66586;SHT30;53444;45.822;16.092;2023-03-14T05:55:51;11.12;65.06
66586;SHT30;53444;45.822;16.092;2023-03-14T05:58:18;11.11;65.12
66586;SHT30;53444;45.822;16.092;2023-03-14T06:00:44;11.11;65.05
66586;SHT30;53444;45.822;16.092;2023-03-14T06:03:11;11.32;64.79
66586;SHT30;53444;45.822;16.092;2023-03-14T06:05:38;11.45;64.49
66586;SHT30;53444;45.822;16.092;2023-03-14T06:08:04;11.91;63.54
66586;SHT30;53444;45.822;16.092;2023-03-14T06:10:34;11.87;63.86
66586;SHT30;53444;45.822;16.092;2023-03-14T06:13:01;11.85;64.35
66586;SHT30;53444;45.822;16.092;2023-03-14T06:15:28;11.94;64.25
66586;SHT30;53444;45.822;16.092;2023-03-14T06:17:55;11.89;64.18
66586;SHT30;53444;45.822;16.092;2023-03-14T06:20:22;12.01;64.04
66586;SHT30;53444;45.822;16.092;2023-03-14T06:22:49;12.01;64.16
66586;SHT30;53444;45.822;16.092;2023-03-14T06:25:16;12.12;63.94
66586;SHT30;53444;45.822;16.092;2023-03-14T06:27:44;12.13;63.97
66586;SHT30;53444;45.822;16.092;2023-03-14T06:30:11;12.37;63.49
66586;SHT30;53444;45.822;16.092;2023-03-14T06:32:38;12.34;63.87
66586;SHT30;53444;45.822;16.092;2023-03-14T06:35:05;12.36;63.99
66586;SHT30;53444;45.822;16.092;2023-03-14T06:37:32;12.40;63.54
66586;SHT30;53444;45.822;16.092;2023-03-14T06:39:58;12.60;62.68
66586;SHT30;53444;45.822;16.092;2023-03-14T06:42:25;12.74;62.17
66586;SHT30;53444;45.822;16.092;2023-03-14T06:44:53;12.85;62.37
66586;SHT30;53444;45.822;16.092;2023-03-14T06:47:20;12.98;62.15
66586;SHT30;53444;45.822;16.092;2023-03-14T06:49:47;13.16;61.44
66586;SHT30;53444;45.822;16.092;2023-03-14T06:52:13;13.23;61.06
66586;SHT30;53444;45.822;16.092;2023-03-14T06:54:40;13.33;61.01
66586;SHT30;53444;45.822;16.092;2023-03-14T06:57:07;13.43;61.12
66586;SHT30;53444;45.822;16.092;2023-03-14T06:59:33;13.57;60.62
66586;SHT30;53444;45.822;16.092;2023-03-14T07:02:01;13.64;59.96
66586;SHT30;53444;45.822;16.092;2023-03-14T07:04:28;13.71;59.73
66586;SHT30;53444;45.822;16.092;2023-03-14T07:06:55;13.74;59.24
66586;SHT30;53444;45.822;16.092;2023-03-14T07:09:21;13.66;59.91
66586;SHT30;53444;45.822;16.092;2023-03-14T07:11:48;13.77;60.24
66586;SHT30;53444;45.822;16.092;2023-03-14T07:14:15;13.90;60.02
66586;SHT30;53444;45.822;16.092;2023-03-14T07:16:41;13.91;58.61
66586;SHT30;53444;45.822;16.092;2023-03-14T07:19:10;14.11;58.81
66586;SHT30;53444;45.822;16.092;2023-03-14T07:21:36;14.21;58.08
66586;SHT30;53444;45.822;16.092;2023-03-14T07:24:03;14.32;57.87
66586;SHT30;53444;45.822;16.092;2023-03-14T07:26:30;14.52;57.43
66586;SHT30;53444;45.822;16.092;2023-03-14T07:28:56;14.63;55.93
66586;SHT30;53444;45.822;16.092;2023-03-14T07:31:23;14.77;56.19
66586;SHT30;53444;45.822;16.092;2023-03-14T07:33:50;14.92;55.32
66586;SHT30;53444;45.822;16.092;2023-03-14T07:36:18;14.89;55.52
66586;SHT30;53444;45.822;16.092;2023-03-14T07:38:45;15.04;54.61
66586;SHT30;53444;45.822;16.092;2023-03-14T07:41:11;15.13;54.65
66586;SHT30;53444;45.822;16.092;2023-03-14T07:43:42;15.24;54.43
66586;SHT30;53444;45.822;16.092;2023-03-14T07:46:11;15.24;54.02
66586;SHT30;53444;45.822;16.092;2023-03-14T07:48:38;15.30;53.77
66586;SHT30;53444;45.822;16.092;2023-03-14T07:51:15;15.23;54.04
66586;SHT30;53444;45.822;16.092;2023-03-14T07:53:43;15.30;53.91
66586;SHT30;53444;45.822;16.092;2023-03-14T07:56:10;15.44;54.28
66586;SHT30;53444;45.822;16.092;2023-03-14T07:58:37;15.55;53.86
66586;SHT30;53444;45.822;16.092;2023-03-14T08:01:07;15.68;53.31
66586;SHT30;53444;45.822;16.092;2023-03-14T08:03:34;15.82;53.13
66586;SHT30;53444;45.822;16.092;2023-03-14T08:06:00;15.81;53.39
66586;SHT30;53444;45.822;16.092;2023-03-14T08:08:27;15.95;53.25
66586;SHT30;53444;45.822;16.092;2023-03-14T08:10:55;16.15;52.75
66586;SHT30;53444;45.822;16.092;2023-03-14T08:13:22;16.23;52.43
66586;SHT30;53444;45.822;16.092;2023-03-14T08:15:51;16.52;51.17
66586;SHT30;53444;45.822;16.092;2023-03-14T08:18:18;16.70;51.00
66586;SHT30;53444;45.822;16.092;2023-03-14T08:20:44;16.98;50.71
66586;SHT30;53444;45.822;16.092;2023-03-14T08:23:11;17.00;49.21
66586;SHT30;53444;45.822;16.092;2023-03-14T08:25:38;17.12;48.45
66586;SHT30;53444;45.822;16.092;2023-03-14T08:28:06;17.31;49.79
66586;SHT30;53444;45.822;16.092;2023-03-14T08:30:33;17.39;48.20
66586;SHT30;53444;45.822;16.092;2023-03-14T08:32:59;17.36;48.27
66586;SHT30;53444;45.822;16.092;2023-03-14T08:35:27;17.48;47.83
66586;SHT30;53444;45.822;16.092;2023-03-14T08:37:53;17.83;47.89
66586;SHT30;53444;45.822;16.092;2023-03-14T08:40:21;17.79;47.15
66586;SHT30;53444;45.822;16.092;2023-03-14T08:42:47;17.87;46.92
66586;SHT30;53444;45.822;16.092;2023-03-14T08:45:16;18.00;47.63
66586;SHT30;53444;45.822;16.092;2023-03-14T08:47:42;18.02;47.07
66586;SHT30;53444;45.822;16.092;2023-03-14T08:50:11;17.96;46.01
66586;SHT30;53444;45.822;16.092;2023-03-14T08:52:38;18.34;46.16
66586;SHT30;53444;45.822;16.092;2023-03-14T08:55:07;18.30;45.68
66586;SHT30;53444;45.822;16.092;2023-03-14T08:57:34;18.44;46.29
66586;SHT30;53444;45.822;16.092;2023-03-14T09:00:03;18.44;45.34
66586;SHT30;53444;45.822;16.092;2023-03-14T09:02:37;18.47;45.40
66586;SHT30;53444;45.822;16.092;2023-03-14T09:05:04;18.48;44.85
66586;SHT30;53444;45.822;16.092;2023-03-14T09:07:31;18.47;45.45
66586;SHT30;53444;45.822;16.092;2023-03-14T09:09:57;18.55;43.85
66586;SHT30;53444;45.822;16.092;2023-03-14T09:12:24;18.67;43.79
66586;SHT30;53444;45.822;16.092;2023-03-14T09:14:51;18.79;43.97
66586;SHT30;53444;45.822;16.092;2023-03-14T09:17:20;18.85;42.01
66586;SHT30;53444;45.822;16.092;2023-03-14T09:19:48;18.92;40.86
66586;SHT30;53444;45.822;16.092;2023-03-14T09:22:15;19.19;41.08
66586;SHT30;53444;45.822;16.092;2023-03-14T09:24:42;19.19;40.27
66586;SHT30;53444;45.822;16.092;2023-03-14T09:27:08;19.09;40.30
66586;SHT30;53444;45.822;16.092;2023-03-14T09:29:35;19.18;39.94
66586;SHT30;53444;45.822;16.092;2023-03-14T09:32:02;19.32;39.08
66586;SHT30;53444;45.822;16.092;2023-03-14T09:34:29;19.54;40.44
66586;SHT30;53444;45.822;16.092;2023-03-14T09:36:57;19.47;38.72
66586;SHT30;53444;45.822;16.092;2023-03-14T09:39:24;19.56;39.30
66586;SHT30;53444;45.822;16.092;2023-03-14T09:41:51;19.70;38.81
66586;SHT30;53444;45.822;16.092;2023-03-14T09:44:21;19.60;38.64
66586;SHT30;53444;45.822;16.092;2023-03-14T09:46:52;19.59;38.26
66586;SHT30;53444;45.822;16.092;2023-03-14T09:49:21;19.69;38.72
66586;SHT30;53444;45.822;16.092;2023-03-14T09:51:53;19.63;38.19
66586;SHT30;53444;45.822;16.092;2023-03-14T09:54:40;19.78;38.02
66586;SHT30;53444;45.822;16.092;2023-03-14T09:57:12;20.00;37.50
66586;SHT30;53444;45.822;16.092;2023-03-14T09:59:41;20.24;37.46
66586;SHT30;53444;45.822;16.092;2023-03-14T10:02:16;20.22;37.46
66586;SHT30;53444;45.822;16.092;2023-03-14T10:04:45;20.49;37.75
66586;SHT30;53444;45.822;16.092;2023-03-14T10:07:15;20.52;36.15
66586;SHT30;53444;45.822;16.092;2023-03-14T10:09:48;20.11;35.92
66586;SHT30;53444;45.822;16.092;2023-03-14T10:12:15;20.27;36.42
66586;SHT30;53444;45.822;16.092;2023-03-14T10:14:48;20.39;36.24
66586;SHT30;53444;45.822;16.092;2023-03-14T10:17:16;20.48;35.96
66586;SHT30;53444;45.822;16.092;2023-03-14T10:19:54;20.82;36.39
66586;SHT30;53444;45.822;16.092;2023-03-14T10:22:24;20.80;35.38
66586;SHT30;53444;45.822;16.092;2023-03-14T10:24:55;21.10;35.57
66586;SHT30;53444;45.822;16.092;2023-03-14T10:27:28;20.66;34.72
66586;SHT30;53444;45.822;16.092;2023-03-14T10:29:56;20.77;34.84
66586;SHT30;53444;45.822;16.092;2023-03-14T10:32:29;21.09;35.41
66586;SHT30;53444;45.822;16.092;2023-03-14T10:37:50;21.24;34.03
66586;SHT30;53444;45.822;16.092;2023-03-14T10:40:20;21.43;34.08
66586;SHT30;53444;45.822;16.092;2023-03-14T10:42:50;21.30;33.94
66586;SHT30;53444;45.822;16.092;2023-03-14T10:45:31;21.22;33.72
66586;SHT30;53444;45.822;16.092;2023-03-14T10:47:59;21.38;33.90
66586;SHT30;53444;45.822;16.092;2023-03-14T10:50:28;21.40;33.48
66586;SHT30;53444;45.822;16.092;2023-03-14T10:52:56;21.59;33.38
66586;SHT30;53444;45.822;16.092;2023-03-14T10:55:25;21.87;33.22
66586;SHT30;53444;45.822;16.092;2023-03-14T10:57:52;21.67;33.08
66586;SHT30;53444;45.822;16.092;2023-03-14T11:00:21;22.18;33.87
66586;SHT30;53444;45.822;16.092;2023-03-14T11:03:04;22.15;32.50
66586;SHT30;53444;45.822;16.092;2023-03-14T11:05:40;22.18;32.65
66586;SHT30;53444;45.822;16.092;2023-03-14T11:08:12;22.28;33.16
66586;SHT30;53444;45.822;16.092;2023-03-14T11:10:45;22.23;32.68
66586;SHT30;53444;45.822;16.092;2023-03-14T11:13:16;22.13;32.46
66586;SHT30;53444;45.822;16.092;2023-03-14T11:15:54;22.28;32.61
66586;SHT30;53444;45.822;16.092;2023-03-14T11:18:36;22.48;32.12
66586;SHT30;53444;45.822;16.092;2023-03-14T11:21:08;22.32;32.63
66586;SHT30;53444;45.822;16.092;2023-03-14T11:23:43;22.84;32.26
66586;SHT30;53444;45.822;16.092;2023-03-14T11:26:22;23.07;32.59
66586;SHT30;53444;45.822;16.092;2023-03-14T11:28:57;22.90;32.61
66586;SHT30;53444;45.822;16.092;2023-03-14T11:31:26;22.48;32.94
66586;SHT30;53444;45.822;16.092;2023-03-14T11:33:56;22.28;33.49
66586;SHT30;53444;45.822;16.092;2023-03-14T11:36:28;21.68;32.82
66586;SHT30;53444;45.822;16.092;2023-03-14T11:38:59;21.97;32.39
66586;SHT30;53444;45.822;16.092;2023-03-14T11:41:30;22.32;32.83
66586;SHT30;53444;45.822;16.092;2023-03-14T11:44:01;21.94;33.29
66586;SHT30;53444;45.822;16.092;2023-03-14T11:46:33;21.74;33.12
66586;SHT30;53444;45.822;16.092;2023-03-14T11:49:04;21.58;34.10
66586;SHT30;53444;45.822;16.092;2023-03-14T11:51:34;21.37;34.19
66586;SHT30;53444;45.822;16.092;2023-03-14T11:54:11;21.33;34.70
66586;SHT30;53444;45.822;16.092;2023-03-14T11:56:45;21.36;34.34
66586;SHT30;53444;45.822;16.092;2023-03-14T11:59:15;21.31;34.18
66586;SHT30;53444;45.822;16.092;2023-03-14T12:01:53;21.30;34.90
66586;SHT30;53444;45.822;16.092;2023-03-14T12:04:31;21.23;34.40
66586;SHT30;53444;45.822;16.092;2023-03-14T12:07:02;21.26;34.86
66586;SHT30;53444;45.822;16.092;2023-03-14T12:09:30;21.23;34.33
66586;SHT30;53444;45.822;16.092;2023-03-14T12:12:00;21.24;33.35
66586;SHT30;53444;45.822;16.092;2023-03-14T12:14:30;21.20;33.85
66586;SHT30;53444;45.822;16.092;2023-03-14T12:17:04;21.19;34.35
66586;SHT30;53444;45.822;16.092;2023-03-14T12:19:33;21.09;33.47
66586;SHT30;53444;45.822;16.092;2023-03-14T12:22:26;21.02;33.55
66586;SHT30;53444;45.822;16.092;2023-03-14T12:24:57;20.95;34.00
66586;SHT30;53444;45.822;16.092;2023-03-14T12:27:43;20.58;37.39
66586;SHT30;53444;45.822;16.092;2023-03-14T12:30:23;20.28;38.83
66586;SHT30;53444;45.822;16.092;2023-03-14T12:36:00;19.87;40.71
66586;SHT30;53444;45.822;16.092;2023-03-14T12:38:37;19.70;41.40
66586;SHT30;53444;45.822;16.092;2023-03-14T12:41:14;19.45;42.53
66586;SHT30;53444;45.822;16.092;2023-03-14T12:43:43;19.09;45.09
66586;SHT30;53444;45.822;16.092;2023-03-14T12:46:19;18.81;46.65
66586;SHT30;53444;45.822;16.092;2023-03-14T12:48:48;18.68;46.15
66586;SHT30;53444;45.822;16.092;2023-03-14T12:51:17;18.55;45.08
66586;SHT30;53444;45.822;16.092;2023-03-14T12:53:59;18.30;46.10
66586;SHT30;53444;45.822;16.092;2023-03-14T12:56:44;18.14;46.69
66586;SHT30;53444;45.822;16.092;2023-03-14T12:59:31;18.02;46.26
66586;SHT30;53444;45.822;16.092;2023-03-14T13:47:32;15.19;62.32
66586;SHT30;53444;45.822;16.092;2023-03-14T13:50:00;15.08;62.54
66586;SHT30;53444;45.822;16.092;2023-03-14T13:52:31;15.08;62.79
66586;SHT30;53444;45.822;16.092;2023-03-14T13:55:00;15.10;62.71
66586;SHT30;53444;45.822;16.092;2023-03-14T13:57:43;14.97;62.82
66586;SHT30;53444;45.822;16.092;2023-03-14T14:00:40;14.95;63.58
66586;SHT30;53444;45.822;16.092;2023-03-14T14:03:11;14.89;63.43
66586;SHT30;53444;45.822;16.092;2023-03-14T14:05:39;14.86;64.07
66586;SHT30;53444;45.822;16.092;2023-03-14T14:08:06;14.83;64.17
66586;SHT30;53444;45.822;16.092;2023-03-14T14:10:42;14.77;64.09
66586;SHT30;53444;45.822;16.092;2023-03-14T14:13:12;14.73;65.23
66586;SHT30;53444;45.822;16.092;2023-03-14T14:15:59;14.66;64.93
66586;SHT30;53444;45.822;16.092;2023-03-14T14:18:47;14.59;65.10
66586;SHT30;53444;45.822;16.092;2023-03-14T14:21:14;14.59;66.05
66586;SHT30;53444;45.822;16.092;2023-03-14T14:23:43;14.54;66.82
66586;SHT30;53444;45.822;16.092;2023-03-14T14:26:16;14.38;67.64
66586;SHT30;53444;45.822;16.092;2023-03-14T14:28:43;14.31;68.02
66586;SHT30;53444;45.822;16.092;2023-03-14T14:31:20;14.34;68.79
66586;SHT30;53444;45.822;16.092;2023-03-14T14:33:55;14.38;69.37
66586;SHT30;53444;45.822;16.092;2023-03-14T14:36:25;14.26;69.63
66586;SHT30;53444;45.822;16.092;2023-03-14T14:39:05;14.21;70.51
66586;SHT30;53444;45.822;16.092;2023-03-14T14:41:40;14.21;70.87
66586;SHT30;53444;45.822;16.092;2023-03-14T14:44:18;14.20;69.09
66586;SHT30;53444;45.822;16.092;2023-03-14T14:46:48;14.22;69.37
66586;SHT30;53444;45.822;16.092;2023-03-14T14:52:09;14.32;67.83
66586;SHT30;53444;45.822;16.092;2023-03-14T14:54:58;14.36;68.33
66586;SHT30;53444;45.822;16.092;2023-03-14T14:57:56;14.38;67.84
66586;SHT30;53444;45.822;16.092;2023-03-14T15:00:48;14.34;67.61
66586;SHT30;53444;45.822;16.092;2023-03-14T15:03:37;14.24;68.48
66586;SHT30;53444;45.822;16.092;2023-03-14T15:06:42;14.31;68.08
66586;SHT30;53444;45.822;16.092;2023-03-14T15:09:48;14.34;67.59
66586;SHT30;53444;45.822;16.092;2023-03-14T15:12:28;14.29;67.48
66586;SHT30;53444;45.822;16.092;2023-03-14T15:15:24;14.29;67.67
66586;SHT30;53444;45.822;16.092;2023-03-14T15:17:53;14.34;66.96
66586;SHT30;53444;45.822;16.092;2023-03-14T15:20:22;14.42;66.24
66586;SHT30;53444;45.822;16.092;2023-03-14T15:22:53;14.46;66.56
66586;SHT30;53444;45.822;16.092;2023-03-14T15:25:20;14.55;65.50
66586;SHT30;53444;45.822;16.092;2023-03-14T15:27:47;14.54;64.57
66586;SHT30;53444;45.822;16.092;2023-03-14T15:30:15;14.59;64.63
66586;SHT30;53444;45.822;16.092;2023-03-14T15:32:42;14.58;64.92
66586;SHT30;53444;45.822;16.092;2023-03-14T15:35:10;14.54;63.99
66586;SHT30;53444;45.822;16.092;2023-03-14T15:37:37;14.54;64.11
66586;SHT30;53444;45.822;16.092;2023-03-14T15:40:09;14.55;63.83
66586;SHT30;53444;45.822;16.092;2023-03-14T15:42:48;14.56;63.94
66586;SHT30;53444;45.822;16.092;2023-03-14T15:45:16;14.55;64.03
66586;SHT30;53444;45.822;16.092;2023-03-14T15:47:43;14.55;64.14
66586;SHT30;53444;45.822;16.092;2023-03-14T15:50:11;14.56;64.29
66586;SHT30;53444;45.822;16.092;2023-03-14T15:52:38;14.48;64.54
66586;SHT30;53444;45.822;16.092;2023-03-14T15:55:14;14.45;63.96
66586;SHT30;53444;45.822;16.092;2023-03-14T15:57:42;14.42;64.48
66586;SHT30;53444;45.822;16.092;2023-03-14T16:00:11;14.36;64.94
66586;SHT30;53444;45.822;16.092;2023-03-14T16:02:43;14.38;66.17
66586;SHT30;53444;45.822;16.092;2023-03-14T16:05:31;14.44;66.45
66586;SHT30;53444;45.822;16.092;2023-03-14T16:07:57;14.38;66.04
66586;SHT30;53444;45.822;16.092;2023-03-14T16:10:27;14.31;65.98
66586;SHT30;53444;45.822;16.092;2023-03-14T16:13:12;14.24;66.31
66586;SHT30;53444;45.822;16.092;2023-03-14T16:15:55;14.31;65.92
66586;SHT30;53444;45.822;16.092;2023-03-14T16:18:23;14.26;65.77
66586;SHT30;53444;45.822;16.092;2023-03-14T16:21:11;14.22;65.81
66586;SHT30;53444;45.822;16.092;2023-03-14T16:23:41;14.29;66.01
66586;SHT30;53444;45.822;16.092;2023-03-14T16:26:11;14.34;66.02